Time;durP1;ratioP1;P1;durP2;ratioP2;P2;SDS_P1;SDS_P2;PMS_P1;PMS_P2;Temp;Humidity;BMP_temperature;BMP_pressure;BME280_temperature;BME280_humidity;BME280_pressure;Samples;Min_cycle;Max_cycle;Signal;HPM_P1;HPM_P2
2021/01/01 00:01:18;;;;;;;;;;;20.40;25.90;;;;;;491678;240;1001;-71
2021/01/01 00:03:20;;;;;;;;;;;20.30;25.90;;;;;;491631;240;948;-71
2021/01/01 00:05:21;;;;;;;;;;;20.20;26.00;;;;;;491686;240;1059;-71
2021/01/01 00:07:22;;;;;;;;;;;20.20;26.00;;;;;;491664;240;1027;-71
2021/01/01 00:09:23;;;;;;;;;;;20.30;25.90;;;;;;491630;240;1267;-71
2021/01/01 00:11:25;;;;;;;;;;;20.20;25.90;;;;;;491653;240;1050;-71
2021/01/01 00:13:26;;;;;;;;;;;20.20;25.90;;;;;;491644;240;1232;-71
2021/01/01 00:15:27;;;;;;;;;;;20.20;25.90;;;;;;491702;240;932;-71
2021/01/01 00:17:28;;;;;;;;;;;20.30;25.90;;;;;;491660;240;2200;-71
2021/01/01 00:19:30;;;;;;;;;;;20.20;26.00;;;;;;491704;240;940;-71
2021/01/01 00:21:31;;;;;;;;;;;20.20;25.90;;;;;;491651;240;1083;-71
2021/01/01 00:23:32;;;;;;;;;;;20.20;25.90;;;;;;491668;240;976;-71
2021/01/01 00:25:35;;;;;;;;;;;20.20;25.90;;;;;;491624;240;1206;-71
2021/01/01 00:27:36;;;;;;;;;;;20.20;25.90;;;;;;491667;240;1112;-71
2021/01/01 00:29:37;;;;;;;;;;;20.30;25.90;;;;;;491686;240;1238;-71
2021/01/01 00:31:39;;;;;;;;;;;20.20;25.80;;;;;;491630;240;1101;-71
2021/01/01 00:33:40;;;;;;;;;;;20.20;25.90;;;;;;491643;240;941;-71
2021/01/01 00:35:41;;;;;;;;;;;20.20;25.90;;;;;;491644;240;1209;-71
2021/01/01 00:37:42;;;;;;;;;;;20.10;25.90;;;;;;491629;240;2199;-71
2021/01/01 00:39:44;;;;;;;;;;;20.00;26.00;;;;;;491670;240;1145;-71
2021/01/01 00:41:45;;;;;;;;;;;20.00;26.00;;;;;;491616;240;1214;-71
2021/01/01 00:43:46;;;;;;;;;;;20.10;25.90;;;;;;491658;240;1056;-71
2021/01/01 00:45:48;;;;;;;;;;;20.00;25.90;;;;;;491648;240;1069;-71
2021/01/01 00:47:49;;;;;;;;;;;20.10;26.00;;;;;;491658;240;1157;-71
2021/01/01 00:49:50;;;;;;;;;;;20.10;26.00;;;;;;491660;240;952;-71
2021/01/01 00:51:52;;;;;;;;;;;20.00;26.00;;;;;;491687;240;1216;-71
2021/01/01 00:53:53;;;;;;;;;;;20.00;25.90;;;;;;491677;240;1055;-71
2021/01/01 00:55:54;;;;;;;;;;;20.10;25.90;;;;;;491677;240;1214;-71
2021/01/01 00:57:56;;;;;;;;;;;20.00;25.90;;;;;;491671;240;2128;-72
2021/01/01 00:59:57;;;;;;;;;;;20.10;25.90;;;;;;491633;240;957;-71
2021/01/01 01:01:58;;;;;;;;;;;20.10;25.90;;;;;;491650;240;1204;-71
2021/01/01 01:03:59;;;;;;;;;;;20.00;25.90;;;;;;491685;240;970;-71
2021/01/01 01:06:01;;;;;;;;;;;20.00;26.00;;;;;;491610;240;956;-71
2021/01/01 01:08:02;;;;;;;;;;;20.00;26.00;;;;;;491628;240;1051;-71
2021/01/01 01:10:03;;;;;;;;;;;20.00;26.00;;;;;;491620;240;1132;-71
2021/01/01 01:12:04;;;;;;;;;;;20.00;25.90;;;;;;491654;240;1031;-72
2021/01/01 01:14:06;;;;;;;;;;;19.90;25.90;;;;;;491710;240;1046;-71
2021/01/01 01:16:08;;;;;;;;;;;20.00;26.00;;;;;;491687;240;928;-71
2021/01/01 01:18:10;;;;;;;;;;;19.90;26.00;;;;;;491645;240;2187;-71
2021/01/01 01:20:11;;;;;;;;;;;19.80;26.00;;;;;;491653;240;1028;-71
2021/01/01 01:22:12;;;;;;;;;;;19.80;26.00;;;;;;491614;240;944;-71
2021/01/01 01:24:13;;;;;;;;;;;19.80;26.00;;;;;;491724;240;1058;-71
2021/01/01 01:26:15;;;;;;;;;;;19.80;26.00;;;;;;491696;240;1173;-71
2021/01/01 01:28:16;;;;;;;;;;;19.80;26.00;;;;;;491614;240;936;-71
2021/01/01 01:30:17;;;;;;;;;;;19.80;26.00;;;;;;491626;240;964;-71
2021/01/01 01:32:19;;;;;;;;;;;19.80;26.00;;;;;;491610;240;1064;-71
2021/01/01 01:34:20;;;;;;;;;;;19.80;26.00;;;;;;491653;240;921;-71
2021/01/01 01:36:21;;;;;;;;;;;19.80;26.00;;;;;;491732;240;1034;-72
2021/01/01 01:38:22;;;;;;;;;;;19.80;26.10;;;;;;491723;240;2172;-72
2021/01/01 01:40:26;;;;;;;;;;;19.70;26.10;;;;;;491641;240;1082;-71
2021/01/01 01:42:25;;;;;;;;;;;19.80;26.10;;;;;;491648;240;1421;-71
2021/01/01 01:44:27;;;;;;;;;;;19.80;26.00;;;;;;491706;240;1044;-71
2021/01/01 01:46:28;;;;;;;;;;;19.90;26.00;;;;;;491629;240;944;-71
2021/01/01 01:48:29;;;;;;;;;;;19.90;26.00;;;;;;491720;240;1058;-71
2021/01/01 01:50:31;;;;;;;;;;;19.90;26.00;;;;;;491678;240;1073;-71
2021/01/01 01:52:32;;;;;;;;;;;19.90;25.90;;;;;;491714;240;970;-72
2021/01/01 01:54:33;;;;;;;;;;;19.80;26.00;;;;;;491659;240;943;-71
2021/01/01 01:56:34;;;;;;;;;;;19.80;26.00;;;;;;491562;240;1305;-71
2021/01/01 01:58:36;;;;;;;;;;;19.70;26.00;;;;;;491660;240;2184;-71
2021/01/01 02:00:55;;;;;;;;;;;19.70;26.10;;;;;;491687;240;1212;-71
2021/01/01 02:02:52;;;;;;;;;;;19.60;26.20;;;;;;491550;242;1533;-71
2021/01/01 02:04:53;;;;;;;;;;;19.60;26.20;;;;;;491674;240;927;-71
2021/01/01 02:06:55;;;;;;;;;;;19.60;26.20;;;;;;491612;240;1123;-71
2021/01/01 02:08:56;;;;;;;;;;;19.60;26.20;;;;;;491681;240;1007;-71
2021/01/01 02:10:57;;;;;;;;;;;19.60;26.20;;;;;;491623;238;1201;-71
2021/01/01 02:12:58;;;;;;;;;;;19.60;26.20;;;;;;491589;240;950;-72
2021/01/01 02:15:00;;;;;;;;;;;19.50;26.20;;;;;;491636;240;1031;-71
2021/01/01 02:17:01;;;;;;;;;;;19.50;26.20;;;;;;491628;240;1027;-71
2021/01/01 02:19:02;;;;;;;;;;;19.50;26.20;;;;;;491665;240;2189;-71
2021/01/01 02:21:04;;;;;;;;;;;19.50;26.20;;;;;;491618;240;991;-71
2021/01/01 02:23:05;;;;;;;;;;;19.50;26.20;;;;;;491645;240;1019;-71
2021/01/01 02:25:06;;;;;;;;;;;19.50;26.20;;;;;;491698;240;966;-71
2021/01/01 02:27:07;;;;;;;;;;;19.50;26.10;;;;;;491640;240;1129;-71
2021/01/01 02:29:09;;;;;;;;;;;19.50;26.10;;;;;;491638;240;1026;-71
2021/01/01 02:31:10;;;;;;;;;;;19.50;26.10;;;;;;491606;240;1001;-71
2021/01/01 02:33:11;;;;;;;;;;;19.50;26.10;;;;;;491580;240;938;-71
2021/01/01 02:35:12;;;;;;;;;;;19.50;26.10;;;;;;491634;240;1335;-71
2021/01/01 02:37:14;;;;;;;;;;;19.50;26.10;;;;;;491588;240;993;-71
2021/01/01 02:39:15;;;;;;;;;;;19.50;26.00;;;;;;491638;240;2161;-72
2021/01/01 02:41:16;;;;;;;;;;;19.50;26.00;;;;;;491588;240;1147;-71
2021/01/01 02:43:18;;;;;;;;;;;19.50;26.10;;;;;;491654;240;1086;-71
2021/01/01 02:45:19;;;;;;;;;;;19.40;26.10;;;;;;491683;240;947;-71
2021/01/01 02:47:20;;;;;;;;;;;19.40;26.10;;;;;;491648;240;955;-71
2021/01/01 02:49:21;;;;;;;;;;;19.40;26.10;;;;;;491759;240;1099;-71
2021/01/01 02:51:23;;;;;;;;;;;19.40;26.10;;;;;;491618;240;967;-71
2021/01/01 02:53:24;;;;;;;;;;;19.40;26.10;;;;;;491686;240;982;-72
2021/01/01 02:55:25;;;;;;;;;;;19.30;26.00;;;;;;491626;240;946;-71
2021/01/01 02:57:26;;;;;;;;;;;19.30;26.10;;;;;;491636;240;1192;-71
2021/01/01 02:59:28;;;;;;;;;;;19.40;26.10;;;;;;491695;240;2183;-71
2021/01/01 03:01:29;;;;;;;;;;;19.40;26.10;;;;;;491686;240;1043;-71
2021/01/01 03:03:30;;;;;;;;;;;19.30;26.00;;;;;;491612;240;1164;-71
2021/01/01 03:05:32;;;;;;;;;;;19.30;26.00;;;;;;491660;240;918;-71
2021/01/01 03:07:33;;;;;;;;;;;19.30;26.00;;;;;;491627;240;1216;-71
2021/01/01 03:09:34;;;;;;;;;;;19.20;26.00;;;;;;491667;240;943;-71
2021/01/01 03:11:35;;;;;;;;;;;19.20;26.00;;;;;;491677;240;1384;-72
2021/01/01 03:13:37;;;;;;;;;;;19.30;26.00;;;;;;491667;240;1089;-72
2021/01/01 03:15:38;;;;;;;;;;;19.30;26.00;;;;;;491631;240;955;-71
2021/01/01 03:17:39;;;;;;;;;;;19.20;26.00;;;;;;491620;240;1187;-71
2021/01/01 03:19:41;;;;;;;;;;;19.20;26.00;;;;;;491643;242;2120;-71
2021/01/01 03:21:42;;;;;;;;;;;19.20;26.00;;;;;;491619;240;949;-71
2021/01/01 03:23:43;;;;;;;;;;;19.20;26.10;;;;;;491693;240;1115;-71
2021/01/01 03:25:45;;;;;;;;;;;19.10;26.10;;;;;;491762;240;1062;-71
2021/01/01 03:27:46;;;;;;;;;;;19.10;26.10;;;;;;491644;242;1424;-71
2021/01/01 03:29:47;;;;;;;;;;;19.10;26.10;;;;;;491722;240;953;-71
2021/01/01 03:31:48;;;;;;;;;;;19.10;26.10;;;;;;491759;240;985;-71
2021/01/01 03:33:51;;;;;;;;;;;19.00;26.10;;;;;;491651;240;1031;-71
2021/01/01 03:35:52;;;;;;;;;;;19.00;26.20;;;;;;491678;240;951;-72
2021/01/01 03:37:54;;;;;;;;;;;19.00;26.10;;;;;;491661;240;935;-71
2021/01/01 03:39:55;;;;;;;;;;;18.90;26.20;;;;;;491616;240;2129;-71
2021/01/01 03:41:56;;;;;;;;;;;19.00;26.20;;;;;;491645;240;1136;-71
2021/01/01 03:43:57;;;;;;;;;;;19.00;26.10;;;;;;491652;240;1071;-71
2021/01/01 03:45:59;;;;;;;;;;;18.90;26.20;;;;;;491612;240;1074;-71
2021/01/01 03:48:00;;;;;;;;;;;18.90;26.20;;;;;;491670;240;976;-73
2021/01/01 03:50:01;;;;;;;;;;;18.90;26.30;;;;;;491655;240;982;-72
2021/01/01 03:52:03;;;;;;;;;;;18.90;26.20;;;;;;491681;240;1246;-71
2021/01/01 03:54:04;;;;;;;;;;;18.90;26.20;;;;;;491695;240;1012;-71
2021/01/01 03:56:05;;;;;;;;;;;18.90;26.20;;;;;;491729;240;1020;-72
2021/01/01 03:58:06;;;;;;;;;;;18.90;26.20;;;;;;491661;240;1102;-71
2021/01/01 04:00:08;;;;;;;;;;;18.90;26.20;;;;;;491660;240;2172;-71
2021/01/01 04:02:09;;;;;;;;;;;18.90;26.20;;;;;;491678;240;1046;-72
2021/01/01 04:04:10;;;;;;;;;;;18.90;26.20;;;;;;491680;240;1099;-71
2021/01/01 04:06:11;;;;;;;;;;;18.90;26.20;;;;;;491641;240;957;-72
2021/01/01 04:08:13;;;;;;;;;;;18.90;26.20;;;;;;491662;240;1327;-71
2021/01/01 04:10:14;;;;;;;;;;;18.90;26.20;;;;;;491718;240;948;-71
2021/01/01 04:12:15;;;;;;;;;;;18.90;26.20;;;;;;491629;240;1217;-71
2021/01/01 04:14:17;;;;;;;;;;;18.90;26.30;;;;;;491648;240;1014;-72
2021/01/01 04:16:18;;;;;;;;;;;18.90;26.30;;;;;;491659;240;1029;-71
2021/01/01 04:18:19;;;;;;;;;;;18.90;26.30;;;;;;491656;240;2175;-71
2021/01/01 04:20:21;;;;;;;;;;;18.90;26.30;;;;;;491640;240;929;-71
2021/01/01 04:22:22;;;;;;;;;;;18.80;26.30;;;;;;491592;240;1167;-71
2021/01/01 04:24:23;;;;;;;;;;;18.80;26.30;;;;;;491656;240;1073;-72
2021/01/01 04:26:25;;;;;;;;;;;18.80;26.30;;;;;;491596;240;1179;-71
2021/01/01 04:28:26;;;;;;;;;;;18.80;26.30;;;;;;491716;240;1101;-71
2021/01/01 04:30:27;;;;;;;;;;;18.80;26.30;;;;;;491764;240;1029;-71
2021/01/01 04:32:28;;;;;;;;;;;18.80;26.30;;;;;;491652;240;1093;-71
2021/01/01 04:34:30;;;;;;;;;;;18.80;26.30;;;;;;491660;240;948;-71
2021/01/01 04:36:31;;;;;;;;;;;18.80;26.40;;;;;;491680;240;953;-71
2021/01/01 04:38:32;;;;;;;;;;;18.80;26.40;;;;;;491616;240;2124;-71
2021/01/01 04:40:34;;;;;;;;;;;18.80;26.40;;;;;;491596;240;1003;-71
2021/01/01 04:42:35;;;;;;;;;;;18.80;26.40;;;;;;491571;240;1294;-71
2021/01/01 04:44:36;;;;;;;;;;;18.80;26.40;;;;;;491764;240;1017;-71
2021/01/01 04:46:37;;;;;;;;;;;18.80;26.40;;;;;;491628;240;1162;-71
2021/01/01 04:48:39;;;;;;;;;;;18.80;26.40;;;;;;491613;240;1097;-71
2021/01/01 04:50:40;;;;;;;;;;;18.80;26.40;;;;;;491618;240;953;-71
2021/01/01 04:52:41;;;;;;;;;;;18.80;26.50;;;;;;491587;240;1216;-71
2021/01/01 04:54:43;;;;;;;;;;;18.70;26.50;;;;;;491700;240;1050;-71
2021/01/01 04:56:44;;;;;;;;;;;18.70;26.50;;;;;;491656;240;1032;-71
2021/01/01 04:58:45;;;;;;;;;;;18.70;26.50;;;;;;491696;240;2187;-71
2021/01/01 05:00:46;;;;;;;;;;;18.70;26.60;;;;;;491666;240;949;-71
2021/01/01 05:02:48;;;;;;;;;;;18.70;26.60;;;;;;491731;240;1080;-71
2021/01/01 05:04:49;;;;;;;;;;;18.60;26.60;;;;;;491683;240;1046;-71
2021/01/01 05:06:50;;;;;;;;;;;18.70;26.60;;;;;;491584;240;1199;-72
2021/01/01 05:08:51;;;;;;;;;;;18.70;26.60;;;;;;491672;240;974;-72
2021/01/01 05:10:53;;;;;;;;;;;18.70;26.60;;;;;;491697;240;1078;-72
2021/01/01 05:12:54;;;;;;;;;;;18.60;26.60;;;;;;491652;240;1050;-71
2021/01/01 05:14:55;;;;;;;;;;;18.60;26.60;;;;;;491761;240;1092;-71
2021/01/01 05:16:57;;;;;;;;;;;18.60;26.70;;;;;;491673;240;1039;-71
2021/01/01 05:18:58;;;;;;;;;;;18.60;26.70;;;;;;491683;240;2191;-71
2021/01/01 05:20:59;;;;;;;;;;;18.60;26.60;;;;;;491687;240;939;-71
2021/01/01 05:23:00;;;;;;;;;;;18.60;26.70;;;;;;491682;240;1032;-71
2021/01/01 05:25:03;;;;;;;;;;;18.60;26.70;;;;;;491659;240;1049;-71
2021/01/01 05:27:04;;;;;;;;;;;18.60;26.70;;;;;;491597;240;1011;-71
2021/01/01 05:29:06;;;;;;;;;;;18.60;26.70;;;;;;491675;240;1193;-72
2021/01/01 05:31:07;;;;;;;;;;;18.70;26.70;;;;;;491634;240;943;-71
2021/01/01 05:33:08;;;;;;;;;;;18.70;26.70;;;;;;491616;240;972;-71
2021/01/01 05:35:09;;;;;;;;;;;18.70;26.70;;;;;;491733;240;1014;-71
2021/01/01 05:37:11;;;;;;;;;;;18.70;26.70;;;;;;491594;240;1079;-71
2021/01/01 05:39:12;;;;;;;;;;;18.70;26.70;;;;;;491651;240;2171;-71
2021/01/01 05:41:13;;;;;;;;;;;18.70;26.70;;;;;;491691;240;1055;-71
2021/01/01 05:43:15;;;;;;;;;;;18.60;26.70;;;;;;491638;240;1393;-71
2021/01/01 05:45:16;;;;;;;;;;;18.60;26.70;;;;;;491639;240;1063;-71
2021/01/01 05:47:17;;;;;;;;;;;18.60;26.80;;;;;;491649;240;1054;-71
2021/01/01 05:49:18;;;;;;;;;;;18.60;26.80;;;;;;491661;240;961;-72
2021/01/01 05:51:20;;;;;;;;;;;18.60;26.70;;;;;;491640;240;952;-72
2021/01/01 05:53:21;;;;;;;;;;;18.60;26.70;;;;;;491641;240;1113;-71
2021/01/01 05:55:22;;;;;;;;;;;18.60;26.70;;;;;;491584;240;1055;-71
2021/01/01 05:57:23;;;;;;;;;;;18.60;26.70;;;;;;491667;240;1075;-71
2021/01/01 05:59:25;;;;;;;;;;;18.60;26.70;;;;;;491657;240;2193;-71
2021/01/01 06:01:26;;;;;;;;;;;18.60;26.70;;;;;;491687;240;954;-71
2021/01/01 06:03:27;;;;;;;;;;;18.60;26.70;;;;;;491716;240;1075;-71
2021/01/01 06:05:29;;;;;;;;;;;18.60;26.70;;;;;;491624;240;1096;-71
2021/01/01 06:07:30;;;;;;;;;;;18.60;26.70;;;;;;491659;240;977;-71
2021/01/01 06:09:31;;;;;;;;;;;18.60;26.70;;;;;;491656;240;949;-71
2021/01/01 06:11:32;;;;;;;;;;;18.60;26.70;;;;;;491606;240;982;-71
2021/01/01 06:13:34;;;;;;;;;;;18.60;26.70;;;;;;491609;240;1130;-71
2021/01/01 06:15:35;;;;;;;;;;;18.60;26.70;;;;;;491673;240;951;-71
2021/01/01 06:17:36;;;;;;;;;;;18.60;26.70;;;;;;491800;240;930;-71
2021/01/01 06:19:38;;;;;;;;;;;18.60;26.60;;;;;;491663;240;2132;-71
2021/01/01 06:21:39;;;;;;;;;;;18.60;26.70;;;;;;491656;240;1049;-72
2021/01/01 06:23:40;;;;;;;;;;;18.60;26.60;;;;;;491661;240;988;-72
2021/01/01 06:25:41;;;;;;;;;;;18.70;26.70;;;;;;491618;240;980;-72
2021/01/01 06:27:43;;;;;;;;;;;18.70;26.70;;;;;;491669;240;952;-72
2021/01/01 06:29:44;;;;;;;;;;;18.60;26.60;;;;;;491710;240;1245;-72
2021/01/01 06:31:45;;;;;;;;;;;18.60;26.60;;;;;;491644;240;959;-71
2021/01/01 06:33:46;;;;;;;;;;;18.60;26.60;;;;;;491682;240;959;-71
2021/01/01 06:35:48;;;;;;;;;;;18.60;26.60;;;;;;491641;240;962;-71
2021/01/01 06:37:49;;;;;;;;;;;18.60;26.70;;;;;;491704;240;1017;-71
2021/01/01 06:39:50;;;;;;;;;;;18.60;26.70;;;;;;491637;240;2183;-71
2021/01/01 06:41:52;;;;;;;;;;;18.60;26.70;;;;;;491704;240;1175;-71
2021/01/01 06:43:53;;;;;;;;;;;18.60;26.70;;;;;;491646;240;1130;-71
2021/01/01 06:45:54;;;;;;;;;;;18.60;26.70;;;;;;491654;240;924;-72
2021/01/01 06:47:55;;;;;;;;;;;18.60;26.70;;;;;;491644;240;1096;-72
2021/01/01 06:49:57;;;;;;;;;;;18.60;26.70;;;;;;491601;240;1084;-72
2021/01/01 06:51:58;;;;;;;;;;;18.60;26.70;;;;;;491601;240;1209;-71
2021/01/01 06:53:59;;;;;;;;;;;18.50;26.70;;;;;;491661;240;981;-71
2021/01/01 06:56:00;;;;;;;;;;;18.50;26.70;;;;;;491605;240;955;-71
2021/01/01 06:58:02;;;;;;;;;;;18.50;26.70;;;;;;491664;240;1024;-71
2021/01/01 07:00:03;;;;;;;;;;;18.50;26.70;;;;;;491627;240;2176;-71
2021/01/01 07:02:04;;;;;;;;;;;18.50;26.70;;;;;;491652;240;954;-72
2021/01/01 07:04:06;;;;;;;;;;;18.50;26.70;;;;;;491633;240;955;-72
2021/01/01 07:06:07;;;;;;;;;;;18.50;26.60;;;;;;491642;240;981;-72
2021/01/01 07:08:08;;;;;;;;;;;18.50;26.70;;;;;;491648;240;930;-72
2021/01/01 07:10:09;;;;;;;;;;;18.60;26.70;;;;;;491645;240;942;-72
2021/01/01 07:12:11;;;;;;;;;;;18.50;26.60;;;;;;491679;240;1063;-72
2021/01/01 07:14:12;;;;;;;;;;;18.60;26.70;;;;;;491665;238;1296;-71
2021/01/01 07:16:13;;;;;;;;;;;18.60;26.60;;;;;;491656;240;928;-71
2021/01/01 07:18:15;;;;;;;;;;;18.50;26.70;;;;;;491674;240;1082;-72
2021/01/01 07:20:16;;;;;;;;;;;18.50;26.60;;;;;;491624;240;2243;-72
2021/01/01 07:22:17;;;;;;;;;;;18.50;26.60;;;;;;491632;240;1025;-71
2021/01/01 07:24:19;;;;;;;;;;;18.50;26.60;;;;;;491607;240;975;-71
2021/01/01 07:26:20;;;;;;;;;;;18.50;26.60;;;;;;491579;240;954;-71
2021/01/01 07:28:21;;;;;;;;;;;18.50;26.60;;;;;;491643;240;938;-72
2021/01/01 07:30:22;;;;;;;;;;;18.50;26.60;;;;;;491652;240;1167;-72
2021/01/01 07:32:24;;;;;;;;;;;18.50;26.60;;;;;;491702;240;948;-72
2021/01/01 07:34:25;;;;;;;;;;;18.60;26.60;;;;;;491690;240;954;-72
2021/01/01 07:36:27;;;;;;;;;;;18.50;26.60;;;;;;491681;240;954;-71
2021/01/01 07:38:28;;;;;;;;;;;18.50;26.70;;;;;;491694;240;978;-71
2021/01/01 07:40:29;;;;;;;;;;;18.50;26.70;;;;;;491633;240;2133;-71
2021/01/01 07:42:31;;;;;;;;;;;18.50;26.70;;;;;;491718;240;958;-71
2021/01/01 07:44:32;;;;;;;;;;;18.50;26.70;;;;;;491710;240;1141;-71
2021/01/01 07:46:33;;;;;;;;;;;18.40;26.60;;;;;;491710;240;1031;-71
2021/01/01 07:48:34;;;;;;;;;;;18.50;26.70;;;;;;491776;240;962;-71
2021/01/01 07:50:36;;;;;;;;;;;18.50;26.70;;;;;;491613;240;987;-71
2021/01/01 07:52:37;;;;;;;;;;;18.50;26.70;;;;;;491648;240;933;-71
2021/01/01 07:54:38;;;;;;;;;;;18.50;26.70;;;;;;491711;240;1258;-71
2021/01/01 07:56:39;;;;;;;;;;;18.50;26.70;;;;;;491681;240;1176;-71
2021/01/01 07:58:41;;;;;;;;;;;18.40;26.70;;;;;;491700;240;1087;-72
2021/01/01 08:00:42;;;;;;;;;;;18.50;26.70;;;;;;491669;240;2164;-72
2021/01/01 08:02:45;;;;;;;;;;;18.40;26.70;;;;;;491669;240;1061;-72
2021/01/01 08:04:46;;;;;;;;;;;18.50;26.70;;;;;;491699;240;1110;-72
2021/01/01 08:06:48;;;;;;;;;;;18.50;26.60;;;;;;491651;240;1393;-71
2021/01/01 08:08:50;;;;;;;;;;;18.50;26.70;;;;;;491695;240;955;-71
2021/01/01 08:10:51;;;;;;;;;;;18.40;26.70;;;;;;491654;242;1957;-71
2021/01/01 08:12:53;;;;;;;;;;;18.50;26.70;;;;;;491686;240;1141;-71
2021/01/01 08:14:55;;;;;;;;;;;18.50;26.70;;;;;;491702;240;1374;-72
2021/01/01 08:16:55;;;;;;;;;;;18.50;26.70;;;;;;491618;242;1566;-72
2021/01/01 08:18:56;;;;;;;;;;;18.50;26.70;;;;;;491669;240;1219;-72
2021/01/01 08:20:57;;;;;;;;;;;18.50;26.70;;;;;;491651;240;2187;-72
2021/01/01 08:22:58;;;;;;;;;;;18.50;26.70;;;;;;491664;240;1066;-72
2021/01/01 08:25:00;;;;;;;;;;;18.50;26.70;;;;;;491646;240;1003;-72
2021/01/01 08:27:01;;;;;;;;;;;18.50;26.70;;;;;;491655;240;1215;-72
2021/01/01 08:29:02;;;;;;;;;;;18.40;26.70;;;;;;491699;240;1081;-72
2021/01/01 08:31:03;;;;;;;;;;;18.50;26.80;;;;;;491696;240;1318;-72
2021/01/01 08:33:05;;;;;;;;;;;18.50;26.80;;;;;;491650;240;1083;-72
2021/01/01 08:35:06;;;;;;;;;;;18.50;26.70;;;;;;491756;240;940;-72
2021/01/01 08:37:07;;;;;;;;;;;18.50;26.80;;;;;;491672;240;1074;-72
2021/01/01 08:39:09;;;;;;;;;;;18.50;26.80;;;;;;491734;240;910;-72
2021/01/01 08:41:10;;;;;;;;;;;18.40;26.80;;;;;;491654;240;2140;-72
2021/01/01 08:43:11;;;;;;;;;;;18.50;26.80;;;;;;491714;240;1183;-72
2021/01/01 08:45:12;;;;;;;;;;;18.40;26.80;;;;;;491669;240;1209;-71
2021/01/01 08:47:14;;;;;;;;;;;18.40;26.80;;;;;;491673;240;1035;-71
2021/01/01 08:49:16;;;;;;;;;;;18.40;26.80;;;;;;491753;240;922;-72
2021/01/01 08:51:17;;;;;;;;;;;18.40;26.90;;;;;;491659;240;1399;-71
2021/01/01 08:53:18;;;;;;;;;;;18.40;26.90;;;;;;491671;240;942;-71
2021/01/01 08:55:20;;;;;;;;;;;18.30;26.90;;;;;;491711;240;1068;-71
2021/01/01 08:57:21;;;;;;;;;;;18.40;27.00;;;;;;491644;240;955;-71
2021/01/01 08:59:22;;;;;;;;;;;18.30;27.00;;;;;;491768;240;1171;-71
2021/01/01 09:01:23;;;;;;;;;;;18.30;27.00;;;;;;491649;240;2191;-72
2021/01/01 09:03:25;;;;;;;;;;;18.30;27.00;;;;;;491653;240;1004;-72
2021/01/01 09:05:26;;;;;;;;;;;18.40;27.00;;;;;;491650;240;1071;-72
2021/01/01 09:07:29;;;;;;;;;;;18.40;27.00;;;;;;491624;240;1017;-72
2021/01/01 09:09:30;;;;;;;;;;;18.40;27.00;;;;;;491675;240;971;-72
2021/01/01 09:11:31;;;;;;;;;;;18.40;27.00;;;;;;491654;240;1073;-71
2021/01/01 09:13:33;;;;;;;;;;;18.40;27.00;;;;;;491705;240;1008;-71
2021/01/01 09:15:34;;;;;;;;;;;18.40;27.10;;;;;;491717;240;1258;-71
2021/01/01 09:17:35;;;;;;;;;;;18.50;27.10;;;;;;491660;240;1050;-71
2021/01/01 09:19:36;;;;;;;;;;;18.40;27.10;;;;;;491641;240;1045;-71
2021/01/01 09:21:38;;;;;;;;;;;18.50;27.10;;;;;;491599;240;2180;-71
2021/01/01 09:23:39;;;;;;;;;;;18.50;27.20;;;;;;491657;240;939;-71
2021/01/01 09:25:40;;;;;;;;;;;18.50;27.10;;;;;;491638;240;1028;-71
2021/01/01 09:27:42;;;;;;;;;;;18.50;27.10;;;;;;491651;240;945;-71
2021/01/01 09:29:43;;;;;;;;;;;18.50;27.10;;;;;;491722;240;1077;-71
2021/01/01 09:31:44;;;;;;;;;;;18.50;27.20;;;;;;491661;240;1152;-71
2021/01/01 09:33:45;;;;;;;;;;;18.50;27.20;;;;;;491650;240;1131;-71
2021/01/01 09:35:47;;;;;;;;;;;18.50;27.20;;;;;;491648;240;954;-71
2021/01/01 09:37:48;;;;;;;;;;;18.50;27.20;;;;;;491647;240;1011;-72
2021/01/01 09:39:49;;;;;;;;;;;18.50;27.30;;;;;;491720;240;1169;-71
2021/01/01 09:41:50;;;;;;;;;;;18.50;27.30;;;;;;491610;240;2196;-71
2021/01/01 09:43:52;;;;;;;;;;;18.50;27.30;;;;;;491726;240;1026;-71
2021/01/01 09:45:53;;;;;;;;;;;18.50;27.30;;;;;;491637;240;1093;-71
2021/01/01 09:47:54;;;;;;;;;;;18.60;27.30;;;;;;491657;240;1053;-71
2021/01/01 09:49:56;;;;;;;;;;;18.60;27.40;;;;;;491666;240;972;-71
2021/01/01 09:51:57;;;;;;;;;;;18.60;27.30;;;;;;491641;240;961;-71
2021/01/01 09:53:59;;;;;;;;;;;18.60;27.40;;;;;;491655;240;951;-71
2021/01/01 09:56:00;;;;;;;;;;;18.60;27.40;;;;;;491603;240;1173;-71
2021/01/01 09:58:01;;;;;;;;;;;18.60;27.40;;;;;;491690;240;1116;-71
2021/01/01 10:00:02;;;;;;;;;;;18.50;27.40;;;;;;491703;240;1005;-72
2021/01/01 10:02:04;;;;;;;;;;;18.60;27.40;;;;;;491590;240;2133;-72
2021/01/01 10:04:05;;;;;;;;;;;18.60;27.40;;;;;;491736;240;1052;-72
2021/01/01 10:06:06;;;;;;;;;;;18.60;27.40;;;;;;491649;240;1198;-72
2021/01/01 10:08:08;;;;;;;;;;;18.60;27.40;;;;;;491684;240;976;-71
2021/01/01 10:10:09;;;;;;;;;;;18.60;27.40;;;;;;491611;240;998;-72
2021/01/01 10:12:10;;;;;;;;;;;18.60;27.40;;;;;;491619;240;1051;-72
2021/01/01 10:14:11;;;;;;;;;;;18.60;27.40;;;;;;491619;240;1015;-72
2021/01/01 10:16:13;;;;;;;;;;;18.60;27.40;;;;;;491724;240;1244;-71
2021/01/01 10:18:14;;;;;;;;;;;18.60;27.40;;;;;;491657;240;986;-71
2021/01/01 10:20:15;;;;;;;;;;;18.60;27.40;;;;;;491660;240;986;-71
2021/01/01 10:22:16;;;;;;;;;;;18.70;27.40;;;;;;491604;240;2181;-71
2021/01/01 10:24:18;;;;;;;;;;;18.70;27.40;;;;;;491641;240;936;-71
2021/01/01 10:26:19;;;;;;;;;;;18.70;27.40;;;;;;491580;240;1282;-72
2021/01/01 10:28:20;;;;;;;;;;;18.70;27.40;;;;;;491604;240;1060;-72
2021/01/01 10:30:22;;;;;;;;;;;18.70;27.40;;;;;;491647;240;966;-72
2021/01/01 10:32:23;;;;;;;;;;;18.70;27.40;;;;;;491571;240;1239;-72
2021/01/01 10:34:24;;;;;;;;;;;18.70;27.40;;;;;;491630;240;1053;-72
2021/01/01 10:36:26;;;;;;;;;;;18.70;27.40;;;;;;491642;240;1029;-71
2021/01/01 10:38:27;;;;;;;;;;;18.70;27.30;;;;;;491685;240;964;-71
2021/01/01 10:40:28;;;;;;;;;;;18.70;27.30;;;;;;491655;240;2136;-71
2021/01/01 10:42:29;;;;;;;;;;;18.70;27.30;;;;;;491652;240;990;-71
2021/01/01 10:44:31;;;;;;;;;;;18.70;27.30;;;;;;491625;240;1048;-72
2021/01/01 10:46:32;;;;;;;;;;;18.70;27.30;;;;;;491580;240;1164;-72
2021/01/01 10:48:34;;;;;;;;;;;18.70;27.30;;;;;;491621;240;955;-71
2021/01/01 10:50:35;;;;;;;;;;;18.70;27.30;;;;;;491654;240;953;-72
2021/01/01 10:52:36;;;;;;;;;;;18.80;27.30;;;;;;491631;240;1006;-72
2021/01/01 10:54:37;;;;;;;;;;;18.80;27.30;;;;;;491723;240;936;-71
2021/01/01 10:56:39;;;;;;;;;;;18.80;27.30;;;;;;491635;240;1102;-71
2021/01/01 10:58:40;;;;;;;;;;;18.80;27.30;;;;;;491675;240;970;-71
2021/01/01 11:00:41;;;;;;;;;;;18.80;27.30;;;;;;491713;240;2120;-72
2021/01/01 11:02:42;;;;;;;;;;;18.80;27.30;;;;;;491694;240;1126;-72
2021/01/01 11:04:44;;;;;;;;;;;18.80;27.30;;;;;;491657;240;958;-72
2021/01/01 11:06:45;;;;;;;;;;;18.80;27.40;;;;;;491679;240;1216;-71
2021/01/01 11:08:46;;;;;;;;;;;18.80;27.40;;;;;;491681;240;1190;-71
2021/01/01 11:10:48;;;;;;;;;;;18.80;27.40;;;;;;491623;240;1368;-71
2021/01/01 11:12:49;;;;;;;;;;;18.80;27.40;;;;;;491654;240;1125;-72
2021/01/01 11:15:15;;;;;;;;;;;18.80;27.40;;;;;;491763;240;1067;-72
2021/01/01 12:22:13;;;;;;;;;;;19.10;27.50;;;;;;491654;240;2183;-72
2021/01/01 12:24:24;;;;;;;;;;;19.10;27.50;;;;;;491680;240;1399;-72
2021/01/01 12:26:20;;;;;;;;;;;19.10;27.40;;;;;;491605;242;1434;-72
2021/01/01 12:28:22;;;;;;;;;;;19.10;27.40;;;;;;491625;240;1012;-71
2021/01/01 12:30:25;;;;;;;;;;;19.10;27.40;;;;;;491646;240;1041;-71
2021/01/01 12:32:25;;;;;;;;;;;19.10;27.50;;;;;;491617;240;1405;-71
2021/01/01 12:34:26;;;;;;;;;;;19.10;27.50;;;;;;491685;240;1322;-71
2021/01/01 12:36:28;;;;;;;;;;;19.10;27.50;;;;;;491607;240;1281;-71
2021/01/01 12:38:29;;;;;;;;;;;19.20;27.60;;;;;;491641;240;969;-71
2021/01/01 12:40:30;;;;;;;;;;;19.20;27.60;;;;;;491665;240;1179;-71
2021/01/01 12:42:31;;;;;;;;;;;19.20;27.60;;;;;;491594;240;2192;-71
2021/01/01 12:44:33;;;;;;;;;;;19.10;27.60;;;;;;491635;240;978;-71
2021/01/01 12:46:34;;;;;;;;;;;19.10;27.60;;;;;;491600;240;1164;-71
2021/01/01 12:48:35;;;;;;;;;;;19.10;27.70;;;;;;491627;240;1206;-71
2021/01/01 12:50:37;;;;;;;;;;;19.20;27.80;;;;;;491611;240;1190;-71
2021/01/01 12:52:38;;;;;;;;;;;19.10;27.80;;;;;;491662;240;1086;-71
2021/01/01 12:54:39;;;;;;;;;;;19.10;27.80;;;;;;491674;240;1092;-72
2021/01/01 12:56:40;;;;;;;;;;;19.10;27.80;;;;;;491674;240;1076;-72
2021/01/01 12:58:42;;;;;;;;;;;19.20;27.90;;;;;;491692;240;1245;-72
2021/01/01 13:00:43;;;;;;;;;;;19.20;27.90;;;;;;491612;240;991;-72
2021/01/01 13:02:44;;;;;;;;;;;19.20;27.90;;;;;;491582;239;2163;-72
2021/01/01 13:04:46;;;;;;;;;;;19.20;27.90;;;;;;491615;240;1085;-71